Honey Creek, WI

5:10 PM CDT on October 22, 2014 (GMT -0500)
Rochester, WI | Change Station
CLOSE
Current Station
Personal Weather Station
Location: Rochester, WI
Elevation: 780 ft
Nearby Weather Stations

Elev 780 ft 42.74 °N, 88.24 °W | Updated 0 second ago

Clear
Clear
52.3 °F
Feels Like 52.3 °F
N
5.4
Wind Variable Wind from West
Gusts 44.1 mph

Today
High -- | Low -- °F
--% Chance of Precip.
Yesterday
High -- | Low -- °F
Precip. -- in
7:14 AM 5:59 PM
Waning Crescent, 1% visible
Pressure 30.26 in
Visibility 10.0 miles
Clouds Clear
Dew Point 40 °F
Humidity 64%
Rainfall 0.04 in
Snow Depth Not available.
UV 1 out of 12
Pollen .30 out of 12
Air Quality Not available.
Flu Activity Sporadic
METAR KBUU 222155Z AUTO 12007KT 10SM CLR 12/04 A3026 RMK AO2 T01150036

More Conditions Fewer Conditions

Pressure 30.26 in
Visibility 10.0 miles
Clouds Clear
Dew Point 40 °F
Humidity 64%
Rainfall 0.04 in
Snow Depth Not available.
UV 1 out of 12
Pollen .30 out of 12
Air Quality Not available.
Flu Activity Sporadic
METAR KBUU 222155Z AUTO 12007KT 10SM CLR 12/04 A3026 RMK AO2 T01150036

More Conditions Fewer Conditions

10-Day Weather Forecast

Almanac

Astronomy

Oct. 22, 2014 Rise Set
Actual Time 7:14 AM CDT 5:59 PM CDT
Civil Twilight 6:46 AM CDT 6:28 PM CDT
Nautical Twilight 6:13 AM CDT 7:01 PM CDT
Astronomical Twilight 5:40 AM CDT 7:34 PM CDT
Moon 5:54 AM CDT 5:27 PM CDT
Length of Visible Light 11h 42m
Length of Day
10h 44m
Tomorrow will be 2m 43s shorter.
Waning Crescent, 1% of the Moon is Illuminated
Today
Waning Crescent
Oct 23
New
Oct 30
First Quarter
Nov 6
Full
Nov 14
Last Quarter

Today's Extremes

State Highs State Lows

Community

WunderPhotos

Upload Photos

1,764,054 photos uploaded!

WunderBlogs® & News

Nearby

Snow Depth

Station Depth Elevation
No new snow has been reported.

Earthquake Activity

City Distance Mag. Time & Date
No recent earthquake activity has been reported nearby.
Minimum magnitude displayed is 2.5.

Coastal Water Temperatures

Place Temperature
No Stations Reporting

Nearby Weather Stations